createdAt,value
2023-04-10T00:00:02.345Z,0.00
2023-04-10T00:01:02.285Z,0.00
2023-04-10T00:02:02.341Z,0.00
2023-04-10T00:03:02.507Z,0.00
2023-04-10T00:04:02.495Z,0.00
2023-04-10T00:05:02.296Z,0.00
2023-04-10T00:06:02.256Z,0.00
2023-04-10T00:07:02.220Z,0.00
2023-04-10T00:08:02.257Z,0.00
2023-04-10T00:09:02.205Z,0.00
2023-04-10T00:10:02.281Z,0.00
2023-04-10T00:11:02.181Z,0.00
2023-04-10T00:12:02.186Z,0.00
2023-04-10T00:13:02.161Z,0.00
2023-04-10T00:14:02.189Z,0.00
2023-04-10T00:15:02.138Z,0.00
2023-04-10T00:16:02.240Z,0.00
2023-04-10T00:17:02.222Z,0.00
2023-04-10T00:18:02.175Z,0.00
2023-04-10T00:19:02.098Z,0.00
2023-04-10T00:20:02.190Z,0.00
2023-04-10T00:21:02.081Z,0.00
2023-04-10T00:22:02.080Z,0.00
2023-04-10T00:23:02.078Z,0.00
2023-04-10T00:24:02.068Z,0.00
2023-04-10T00:25:02.045Z,0.00
2023-04-10T00:26:02.069Z,0.00
2023-04-10T00:27:02.031Z,0.00
2023-04-10T00:28:02.067Z,0.00
2023-04-10T00:29:02.037Z,0.00
2023-04-10T00:30:02.011Z,0.00
2023-04-10T00:31:01.977Z,0.00
2023-04-10T00:32:02.034Z,0.00
2023-04-10T00:33:01.999Z,0.00
2023-04-10T00:34:01.970Z,0.00
2023-04-10T00:35:01.942Z,0.00
2023-04-10T00:36:02.000Z,0.00
2023-04-10T00:37:01.954Z,0.00
2023-04-10T00:38:01.923Z,0.00
2023-04-10T00:39:01.917Z,0.00
2023-04-10T00:40:01.899Z,0.00
2023-04-10T00:41:01.981Z,0.00
2023-04-10T00:42:01.888Z,0.00
2023-04-10T00:43:01.856Z,0.00
2023-04-10T00:44:01.922Z,0.00
2023-04-10T00:45:01.838Z,0.00
2023-04-10T00:46:01.930Z,0.00
2023-04-10T00:47:01.817Z,0.00
2023-04-10T00:48:01.882Z,0.00
2023-04-10T00:49:01.786Z,0.00
2023-04-10T00:50:01.793Z,0.00
2023-04-10T00:51:01.862Z,0.00
2023-04-10T00:52:01.783Z,0.00
2023-04-10T00:53:01.746Z,0.00
2023-04-10T00:54:01.793Z,0.00
2023-04-10T00:55:01.740Z,0.00
2023-04-10T00:56:01.781Z,0.00
2023-04-10T00:57:01.708Z,0.00
2023-04-10T00:58:01.756Z,0.00
2023-04-10T00:59:01.686Z,0.00
2023-04-10T01:00:01.724Z,0.00
2023-04-10T01:01:01.695Z,0.00
2023-04-10T01:02:01.795Z,0.00
2023-04-10T01:03:01.951Z,0.00
2023-04-10T01:04:01.731Z,0.00
2023-04-10T01:05:01.628Z,0.00
2023-04-10T01:06:01.647Z,0.00
2023-04-10T01:07:01.600Z,0.00
2023-04-10T01:08:01.604Z,0.00
2023-04-10T01:09:01.588Z,0.00
2023-04-10T01:10:01.594Z,0.00
2023-04-10T01:11:01.557Z,0.00
2023-04-10T01:12:01.598Z,0.00
2023-04-10T01:13:01.570Z,0.00
2023-04-10T01:14:01.541Z,0.00
2023-04-10T01:15:01.541Z,0.00
2023-04-10T01:16:01.535Z,0.00
2023-04-10T01:17:01.521Z,0.00
2023-04-10T01:18:01.543Z,0.00
2023-04-10T01:19:01.469Z,0.00
2023-04-10T01:20:01.493Z,0.00
2023-04-10T01:21:01.454Z,0.00
2023-04-10T01:22:01.476Z,0.00
2023-04-10T01:23:01.432Z,0.00
2023-04-10T01:24:01.458Z,0.00
2023-04-10T01:25:01.405Z,0.00
2023-04-10T01:26:01.414Z,0.00
2023-04-10T01:27:01.383Z,0.00
2023-04-10T01:28:01.435Z,0.00
2023-04-10T01:29:01.443Z,0.00
2023-04-10T01:30:01.403Z,0.00
2023-04-10T01:31:01.403Z,0.00
2023-04-10T01:32:01.346Z,0.00
2023-04-10T01:33:01.344Z,0.00
2023-04-10T01:34:01.367Z,0.00
2023-04-10T01:35:01.317Z,0.00
2023-04-10T01:36:01.330Z,0.00
2023-04-10T01:37:01.296Z,0.00
2023-04-10T01:38:01.283Z,0.00
2023-04-10T01:39:01.264Z,0.00
2023-04-10T01:40:01.298Z,0.00
2023-04-10T01:41:01.255Z,0.00
2023-04-10T01:43:28.934Z,0.00
2023-04-10T01:43:34.435Z,0.00
2023-04-10T01:44:34.459Z,0.00
2023-04-10T01:45:34.408Z,0.00
2023-04-10T01:46:34.449Z,0.00
2023-04-10T01:47:34.415Z,0.00
2023-04-10T01:48:34.395Z,0.00
2023-04-10T01:49:34.368Z,0.00
2023-04-10T01:50:34.385Z,0.00
2023-04-10T01:51:34.352Z,0.00
2023-04-10T01:52:34.374Z,0.00
2023-04-10T01:53:34.326Z,0.00
2023-04-10T01:54:34.353Z,0.00
2023-04-10T01:55:34.309Z,0.00
2023-04-10T01:56:34.325Z,0.00
2023-04-10T01:57:34.288Z,0.00
2023-04-10T01:58:34.294Z,0.00
2023-04-10T01:59:34.266Z,0.00
2023-04-10T02:00:34.290Z,0.00
2023-04-10T02:01:34.309Z,0.00
2023-04-10T02:02:34.451Z,0.00
2023-04-10T02:03:34.542Z,0.00
2023-04-10T02:04:34.343Z,0.00
2023-04-10T02:05:34.222Z,0.00
2023-04-10T02:06:34.212Z,0.00
2023-04-10T02:07:34.194Z,0.00
2023-04-10T02:08:34.206Z,0.00
2023-04-10T02:09:34.163Z,0.00
2023-04-10T02:10:34.171Z,0.00
2023-04-10T02:11:34.144Z,0.00
2023-04-10T02:12:34.179Z,0.00
2023-04-10T02:13:34.125Z,0.00
2023-04-10T02:14:34.147Z,0.00
2023-04-10T02:15:34.108Z,0.00
2023-04-10T02:16:34.141Z,0.00
2023-04-10T02:17:34.110Z,0.00
2023-04-10T02:18:34.118Z,0.00
2023-04-10T02:19:34.094Z,0.00
2023-04-10T02:20:34.094Z,0.00
2023-04-10T02:21:34.043Z,0.00
2023-04-10T02:22:34.087Z,0.00
2023-04-10T02:23:34.021Z,0.00
2023-04-10T02:24:34.031Z,0.00
2023-04-10T02:25:34.042Z,0.00
2023-04-10T02:26:34.022Z,0.00
2023-04-10T02:27:33.977Z,0.00
2023-04-10T02:28:34.002Z,0.00
2023-04-10T02:29:33.988Z,0.00
2023-04-10T02:30:33.981Z,0.00
2023-04-10T02:31:33.991Z,0.00
2023-04-10T02:32:34.019Z,0.00
2023-04-10T02:33:33.932Z,0.00
2023-04-10T02:34:33.962Z,0.00
2023-04-10T02:35:33.915Z,0.00
2023-04-10T02:36:33.925Z,0.00
2023-04-10T02:37:33.881Z,0.00
2023-04-10T02:38:33.902Z,0.00
2023-04-10T02:39:33.866Z,0.00
2023-04-10T02:40:33.890Z,0.00
2023-04-10T02:41:33.837Z,0.00
2023-04-10T02:42:33.857Z,0.00
2023-04-10T02:43:33.824Z,0.00
2023-04-10T02:44:33.842Z,0.00
2023-04-10T02:45:33.812Z,0.00
2023-04-10T02:46:33.866Z,0.00
2023-04-10T02:47:33.802Z,0.00
2023-04-10T02:48:33.799Z,0.00
2023-04-10T02:49:33.781Z,0.00
2023-04-10T02:50:33.786Z,0.00
2023-04-10T02:51:33.739Z,0.00
2023-04-10T02:52:33.750Z,0.00
2023-04-10T02:53:33.723Z,0.00
2023-04-10T02:54:33.736Z,0.00
2023-04-10T02:55:33.711Z,0.00
2023-04-10T02:56:33.720Z,0.00
2023-04-10T02:57:33.675Z,0.00
2023-04-10T02:58:33.695Z,0.00
2023-04-10T02:59:33.651Z,0.00
2023-04-10T03:00:33.660Z,0.00
2023-04-10T03:01:33.787Z,0.00
2023-04-10T03:02:33.785Z,0.00
2023-04-10T03:03:33.666Z,0.00
2023-04-10T03:04:33.711Z,0.00
2023-04-10T03:05:33.602Z,0.00
2023-04-10T03:06:32.599Z,0.00
2023-04-10T03:07:33.582Z,0.00
2023-04-10T03:08:33.596Z,0.00
2023-04-10T03:09:33.573Z,0.00
2023-04-10T03:10:33.567Z,0.00
2023-04-10T03:11:33.533Z,0.00
2023-04-10T03:12:33.548Z,0.00
2023-04-10T03:13:33.517Z,0.00
2023-04-10T03:14:33.538Z,0.00
2023-04-10T03:15:33.511Z,0.00
2023-04-10T03:16:33.629Z,0.00
2023-04-10T03:17:33.506Z,0.00
2023-04-10T03:18:33.494Z,0.00
2023-04-10T03:19:33.457Z,0.00
2023-04-10T03:20:33.468Z,0.00
2023-04-10T03:21:33.433Z,0.00
2023-04-10T03:22:33.450Z,0.00
2023-04-10T03:23:33.437Z,0.00
2023-04-10T03:24:33.433Z,0.00
2023-04-10T03:25:33.396Z,0.00
2023-04-10T03:26:33.410Z,0.00
2023-04-10T03:27:33.375Z,0.00
2023-04-10T03:28:33.409Z,0.00
2023-04-10T03:29:33.368Z,0.00
2023-04-10T03:30:33.380Z,0.00
2023-04-10T03:31:33.390Z,0.00
2023-04-10T03:32:33.352Z,0.00
2023-04-10T03:33:33.411Z,0.00
2023-04-10T03:34:33.333Z,0.00
2023-04-10T03:35:33.310Z,0.00
2023-04-10T03:36:33.316Z,0.00
2023-04-10T03:37:33.274Z,0.00
2023-04-10T03:38:33.300Z,0.00
2023-04-10T03:39:33.268Z,0.00
2023-04-10T03:40:33.287Z,0.00
2023-04-10T03:41:33.249Z,0.00
2023-04-10T03:42:33.244Z,0.00
2023-04-10T03:43:33.227Z,0.00
2023-04-10T03:44:33.237Z,0.00
2023-04-10T03:45:33.202Z,0.00
2023-04-10T03:46:33.222Z,0.00
2023-04-10T03:47:33.212Z,0.00
2023-04-10T03:48:33.193Z,0.00
2023-04-10T03:49:33.157Z,0.00
2023-04-10T03:50:33.162Z,0.00
2023-04-10T03:51:33.151Z,0.00
2023-04-10T03:52:33.142Z,0.00
2023-04-10T03:53:34.961Z,0.00
2023-04-10T03:54:33.145Z,0.00
2023-04-10T03:55:33.114Z,0.00
2023-04-10T03:56:33.117Z,0.00
2023-04-10T03:57:33.077Z,0.00
2023-04-10T03:58:33.099Z,0.00
2023-04-10T03:59:38.555Z,0.00
2023-04-10T04:00:33.076Z,0.00
2023-04-10T04:01:33.083Z,0.00
2023-04-10T04:02:33.159Z,0.00
2023-04-10T04:03:33.217Z,0.00
2023-04-10T04:04:33.224Z,0.00
2023-04-10T04:05:33.021Z,0.00
2023-04-10T04:06:33.002Z,0.00
2023-04-10T04:07:32.919Z,0.00
2023-04-10T04:08:32.997Z,0.00
2023-04-10T04:09:32.914Z,0.00
2023-04-10T04:10:32.922Z,0.00
2023-04-10T04:11:32.959Z,0.00
2023-04-10T04:12:32.934Z,0.00
2023-04-10T04:13:32.960Z,0.00
2023-04-10T04:14:32.860Z,0.00
2023-04-10T04:15:32.925Z,0.00
2023-04-10T04:16:32.932Z,0.00
2023-04-10T04:17:32.877Z,0.00
2023-04-10T04:18:32.814Z,0.00
2023-04-10T04:19:32.812Z,0.00
2023-04-10T04:20:32.795Z,0.00
2023-04-10T04:21:32.807Z,0.00
2023-04-10T04:22:32.787Z,0.00
2023-04-10T04:23:32.775Z,0.00
2023-04-10T04:24:32.759Z,0.00
2023-04-10T04:25:32.771Z,0.00
2023-04-10T04:26:32.762Z,0.00
2023-04-10T04:27:32.743Z,0.00
2023-04-10T04:28:32.721Z,0.00
2023-04-10T04:29:32.713Z,0.00
2023-04-10T04:30:32.688Z,0.00
2023-04-10T04:31:32.965Z,0.00
2023-04-10T04:32:32.711Z,0.00
2023-04-10T04:33:32.683Z,0.00
2023-04-10T04:34:32.645Z,0.00
2023-04-10T04:35:32.693Z,0.00
2023-04-10T04:36:32.634Z,0.00
2023-04-10T04:37:32.646Z,0.00
2023-04-10T04:38:32.619Z,0.00
2023-04-10T04:39:32.611Z,0.00
2023-04-10T04:40:32.596Z,0.00
2023-04-10T04:41:32.790Z,0.00
2023-04-10T04:42:32.572Z,0.00
2023-04-10T04:43:32.588Z,0.00
2023-04-10T04:44:32.544Z,0.00
2023-04-10T04:45:32.564Z,0.00
2023-04-10T04:46:32.549Z,0.00
2023-04-10T04:47:32.569Z,0.00
2023-04-10T04:48:32.523Z,0.00
2023-04-10T04:49:32.525Z,0.00
2023-04-10T04:50:32.498Z,0.00
2023-04-10T04:51:32.510Z,0.00
2023-04-10T04:52:32.464Z,0.00
2023-04-10T04:53:32.472Z,0.00
2023-04-10T04:54:32.464Z,0.00
2023-04-10T04:55:32.463Z,0.00
2023-04-10T04:56:32.427Z,0.00
2023-04-10T04:57:32.432Z,0.00
2023-04-10T04:58:32.414Z,0.00
2023-04-10T04:59:32.434Z,5.62
2023-04-10T05:00:32.401Z,5.62
2023-04-10T05:01:32.453Z,5.62
2023-04-10T05:02:32.515Z,5.62
2023-04-10T05:03:32.504Z,5.62
2023-04-10T05:04:32.352Z,5.62
2023-04-10T05:05:32.374Z,5.62
2023-04-10T05:06:32.346Z,5.62
2023-04-10T05:07:32.349Z,5.62
2023-04-10T05:08:32.304Z,5.62
2023-04-10T05:09:32.324Z,5.62
2023-04-10T05:10:32.283Z,5.62
2023-04-10T05:11:32.305Z,5.62
2023-04-10T05:12:32.276Z,5.62
2023-04-10T05:13:32.310Z,5.62
2023-04-10T05:14:32.240Z,5.62
2023-04-10T05:15:32.305Z,5.62
2023-04-10T05:16:32.236Z,5.62
2023-04-10T05:17:32.311Z,5.62
2023-04-10T05:18:32.208Z,5.62
2023-04-10T05:19:32.219Z,5.62
2023-04-10T05:20:32.194Z,5.62
2023-04-10T05:21:32.208Z,5.62
2023-04-10T05:22:32.171Z,5.62
2023-04-10T05:23:32.202Z,5.62
2023-04-10T05:24:32.142Z,11.25
2023-04-10T05:25:32.162Z,11.25
2023-04-10T05:26:32.129Z,11.25
2023-04-10T05:27:32.133Z,11.25
2023-04-10T05:28:32.114Z,11.25
2023-04-10T05:29:32.134Z,11.25
2023-04-10T05:30:32.118Z,11.25
2023-04-10T05:31:32.109Z,11.25
2023-04-10T05:32:32.154Z,11.25
2023-04-10T05:33:32.102Z,11.25
2023-04-10T05:34:32.044Z,11.25
2023-04-10T05:35:32.113Z,11.25
2023-04-10T05:36:32.025Z,11.25
2023-04-10T05:37:32.033Z,11.25
2023-04-10T05:38:32.019Z,11.25
2023-04-10T05:39:32.031Z,11.25
2023-04-10T05:40:32.005Z,11.25
2023-04-10T05:41:32.017Z,11.25
2023-04-10T05:42:31.966Z,11.25
2023-04-10T05:43:31.991Z,11.25
2023-04-10T05:44:31.963Z,11.25
2023-04-10T05:45:31.956Z,16.88
2023-04-10T05:46:31.952Z,16.88
2023-04-10T05:47:32.003Z,16.88
2023-04-10T05:48:31.922Z,16.88
2023-04-10T05:49:31.922Z,16.88
2023-04-10T05:50:31.893Z,16.88
2023-04-10T05:51:31.923Z,16.88
2023-04-10T05:52:31.875Z,16.88
2023-04-10T05:53:31.894Z,16.88
2023-04-10T05:54:31.858Z,16.88
2023-04-10T05:55:31.854Z,16.88
2023-04-10T05:56:31.827Z,16.88
2023-04-10T05:57:31.847Z,16.88
2023-04-10T05:58:31.808Z,16.88
2023-04-10T05:59:31.832Z,16.88
2023-04-10T06:00:31.792Z,22.50
2023-04-10T06:01:31.793Z,22.50
2023-04-10T06:02:31.927Z,22.50
2023-04-10T06:03:31.901Z,22.50
2023-04-10T06:04:32.013Z,22.50
2023-04-10T06:05:31.749Z,22.50
2023-04-10T06:06:31.725Z,28.12
2023-04-10T06:07:31.746Z,28.12
2023-04-10T06:08:31.701Z,28.12
2023-04-10T06:09:31.737Z,33.75
2023-04-10T06:10:31.677Z,33.75
2023-04-10T06:11:31.683Z,33.75
2023-04-10T06:12:31.652Z,33.75
2023-04-10T06:13:31.677Z,33.75
2023-04-10T06:14:31.638Z,33.75
2023-04-10T06:15:31.672Z,39.38
2023-04-10T06:16:31.684Z,39.38
2023-04-10T06:17:31.681Z,39.38
2023-04-10T06:18:31.602Z,45.00
2023-04-10T06:19:31.616Z,45.00
2023-04-10T06:20:31.573Z,45.00
2023-04-10T06:21:31.582Z,45.00
2023-04-10T06:22:31.551Z,45.00
2023-04-10T06:23:31.572Z,50.62
2023-04-10T06:24:31.535Z,50.62
2023-04-10T06:25:31.562Z,50.62
2023-04-10T06:26:31.518Z,50.62
2023-04-10T06:27:31.516Z,50.62
2023-04-10T06:28:31.509Z,50.62
2023-04-10T06:29:31.516Z,50.62
2023-04-10T06:30:31.477Z,56.25
2023-04-10T06:31:31.516Z,61.88
2023-04-10T06:32:31.495Z,67.50
2023-04-10T06:33:31.505Z,67.50
2023-04-10T06:34:31.439Z,67.50
2023-04-10T06:35:31.520Z,61.88
2023-04-10T06:36:31.407Z,73.12
2023-04-10T06:37:31.489Z,73.12
2023-04-10T06:38:31.400Z,73.12
2023-04-10T06:39:31.407Z,73.12
2023-04-10T06:40:31.367Z,73.12
2023-04-10T06:41:31.392Z,78.75
2023-04-10T06:42:31.349Z,78.75
2023-04-10T06:43:31.358Z,84.38
2023-04-10T06:44:31.333Z,84.38
2023-04-10T06:45:31.359Z,84.38
2023-04-10T06:46:31.372Z,78.75
2023-04-10T06:47:31.336Z,78.75
2023-04-10T06:48:31.280Z,73.12
2023-04-10T06:49:31.314Z,73.12
2023-04-10T06:50:33.333Z,73.12
2023-04-10T06:51:31.284Z,73.12
2023-04-10T06:52:31.246Z,73.12
2023-04-10T06:53:31.264Z,73.12
2023-04-10T06:54:31.225Z,73.12
2023-04-10T06:55:31.228Z,78.75
2023-04-10T06:56:31.200Z,84.38
2023-04-10T06:57:31.233Z,90.00
2023-04-10T06:58:31.257Z,90.00
2023-04-10T06:59:31.184Z,67.50
2023-04-10T07:00:31.187Z,90.00
2023-04-10T07:01:31.162Z,84.38
2023-04-10T07:02:31.216Z,84.38
2023-04-10T07:03:31.167Z,90.00
2023-04-10T07:04:31.112Z,73.12
2023-04-10T07:05:31.133Z,67.50
2023-04-10T07:06:31.095Z,78.75
2023-04-10T07:07:31.119Z,78.75
2023-04-10T07:08:31.070Z,84.38
2023-04-10T07:09:31.077Z,90.00
2023-04-10T07:10:31.049Z,90.00
2023-04-10T07:11:31.077Z,90.00
2023-04-10T07:12:31.026Z,90.00
2023-04-10T07:13:31.060Z,90.00
2023-04-10T07:14:31.013Z,84.38
2023-04-10T07:15:31.013Z,84.38
2023-04-10T07:16:31.020Z,90.00
2023-04-10T07:17:31.019Z,90.00
2023-04-10T07:18:30.971Z,84.38
2023-04-10T07:19:31.015Z,78.75
2023-04-10T07:20:30.945Z,84.38
2023-04-10T07:21:30.964Z,84.38
2023-04-10T07:22:30.924Z,78.75
2023-04-10T07:23:30.952Z,78.75
2023-04-10T07:24:30.903Z,78.75
2023-04-10T07:25:30.928Z,78.75
2023-04-10T07:26:30.881Z,78.75
2023-04-10T07:27:30.900Z,78.75
2023-04-10T07:28:30.853Z,78.75
2023-04-10T07:29:30.901Z,78.75
2023-04-10T07:30:30.836Z,90.00
2023-04-10T07:31:30.986Z,90.00
2023-04-10T07:32:30.938Z,95.62
2023-04-10T07:33:30.866Z,95.62
2023-04-10T07:34:30.796Z,95.62
2023-04-10T07:35:30.903Z,101.25
2023-04-10T07:36:30.779Z,106.88
2023-04-10T07:37:30.810Z,101.25
2023-04-10T07:38:30.752Z,106.88
2023-04-10T07:39:30.757Z,112.50
2023-04-10T07:40:30.731Z,118.12
2023-04-10T07:41:30.758Z,118.12
2023-04-10T07:42:30.709Z,123.75
2023-04-10T07:43:30.722Z,123.75
2023-04-10T07:44:30.689Z,129.38
2023-04-10T07:45:30.706Z,129.38
2023-04-10T07:46:30.678Z,135.00
2023-04-10T07:47:30.707Z,140.62
2023-04-10T07:48:30.653Z,140.62
2023-04-10T07:49:30.665Z,146.25
2023-04-10T07:50:30.643Z,163.12
2023-04-10T07:51:30.647Z,163.12
2023-04-10T07:52:30.602Z,168.75
2023-04-10T07:53:30.622Z,180.00
2023-04-10T07:54:30.579Z,180.00
2023-04-10T07:55:30.610Z,174.38
2023-04-10T07:56:30.576Z,174.38
2023-04-10T07:57:30.578Z,180.00
2023-04-10T07:58:30.547Z,180.00
2023-04-10T07:59:30.569Z,180.00
2023-04-10T08:00:30.514Z,191.25
2023-04-10T08:01:30.556Z,191.25
2023-04-10T08:02:30.680Z,185.62
2023-04-10T08:03:30.668Z,196.88
2023-04-10T08:04:30.705Z,196.88
2023-04-10T08:05:30.540Z,208.12
2023-04-10T08:06:30.454Z,219.38
2023-04-10T08:07:30.475Z,225.00
2023-04-10T08:08:30.445Z,225.00
2023-04-10T08:09:30.434Z,236.25
2023-04-10T08:10:30.415Z,247.50
2023-04-10T08:11:30.415Z,247.50
2023-04-10T08:12:30.403Z,258.75
2023-04-10T08:13:30.396Z,241.88
2023-04-10T08:14:30.363Z,264.38
2023-04-10T08:15:30.392Z,241.88
2023-04-10T08:16:30.379Z,253.12
2023-04-10T08:17:30.405Z,241.88
2023-04-10T08:18:30.332Z,174.38
2023-04-10T08:19:30.344Z,106.88
2023-04-10T08:20:30.297Z,213.75
2023-04-10T08:21:30.304Z,230.62
2023-04-10T08:22:30.270Z,219.38
2023-04-10T08:23:30.331Z,236.25
2023-04-10T08:24:30.262Z,241.88
2023-04-10T08:25:30.310Z,247.50
2023-04-10T08:26:30.232Z,258.75
2023-04-10T08:27:30.271Z,247.50
2023-04-10T08:28:30.239Z,258.75
2023-04-10T08:29:30.215Z,253.12
2023-04-10T08:30:30.254Z,253.12
2023-04-10T08:31:30.296Z,236.25
2023-04-10T08:32:30.235Z,219.38
2023-04-10T08:33:30.163Z,219.38
2023-04-10T08:34:30.273Z,219.38
2023-04-10T08:35:30.149Z,253.12
2023-04-10T08:36:30.143Z,236.25
2023-04-10T08:37:30.115Z,258.75
2023-04-10T08:38:30.118Z,258.75
2023-04-10T08:39:30.096Z,247.50
2023-04-10T08:40:30.128Z,264.38
2023-04-10T08:41:30.087Z,219.38
2023-04-10T08:42:30.085Z,258.75
2023-04-10T08:43:30.071Z,264.38
2023-04-10T08:44:30.072Z,298.12
2023-04-10T08:45:30.029Z,298.12
2023-04-10T08:46:30.140Z,326.25
2023-04-10T08:47:30.027Z,320.62
2023-04-10T08:48:30.046Z,320.62
2023-04-10T08:49:29.991Z,348.75
2023-04-10T08:50:29.995Z,331.88
2023-04-10T08:51:29.967Z,331.88
2023-04-10T08:52:29.970Z,331.88
2023-04-10T08:53:29.946Z,320.62
2023-04-10T08:54:29.960Z,326.25
2023-04-10T08:55:29.938Z,320.62
2023-04-10T08:56:29.928Z,331.88
2023-04-10T08:57:29.904Z,101.25
2023-04-10T08:58:29.939Z,230.62
2023-04-10T08:59:29.890Z,331.88
2023-04-10T09:00:29.898Z,337.50
2023-04-10T09:01:29.900Z,331.88
2023-04-10T09:02:30.083Z,331.88
2023-04-10T09:03:30.127Z,337.50
2023-04-10T09:04:29.958Z,315.00
2023-04-10T09:05:29.825Z,337.50
2023-04-10T09:06:29.844Z,315.00
2023-04-10T09:07:29.837Z,348.75
2023-04-10T09:08:29.798Z,343.12
2023-04-10T09:09:29.777Z,348.75
2023-04-10T09:10:29.790Z,354.38
2023-04-10T09:11:29.753Z,348.75
2023-04-10T09:12:29.787Z,326.25
2023-04-10T09:13:29.735Z,354.38
2023-04-10T09:14:29.856Z,354.38
2023-04-10T09:15:29.712Z,354.38
2023-04-10T09:16:29.927Z,360.00
2023-04-10T09:17:29.731Z,247.50
2023-04-10T09:18:29.708Z,236.25
2023-04-10T09:19:29.684Z,309.38
2023-04-10T09:20:29.699Z,354.38
2023-04-10T09:21:29.656Z,360.00
2023-04-10T09:22:29.665Z,360.00
2023-04-10T09:23:29.638Z,360.00
2023-04-10T09:24:29.638Z,365.62
2023-04-10T09:25:29.605Z,360.00
2023-04-10T09:26:29.660Z,365.62
2023-04-10T09:27:29.586Z,371.25
2023-04-10T09:28:29.617Z,371.25
2023-04-10T09:29:29.568Z,376.88
2023-04-10T09:30:29.585Z,376.88
2023-04-10T09:31:29.555Z,376.88
2023-04-10T09:32:29.569Z,371.25
2023-04-10T09:33:29.522Z,365.62
2023-04-10T09:34:29.542Z,371.25
2023-04-10T09:35:29.516Z,371.25
2023-04-10T09:36:29.516Z,365.62
2023-04-10T09:37:29.475Z,371.25
2023-04-10T09:38:29.496Z,376.88
2023-04-10T09:39:29.455Z,365.62
2023-04-10T09:40:29.485Z,360.00
2023-04-10T09:41:29.435Z,371.25
2023-04-10T09:42:29.455Z,298.12
2023-04-10T09:43:29.431Z,365.62
2023-04-10T09:44:29.428Z,388.12
2023-04-10T09:45:29.427Z,388.12
2023-04-10T09:46:29.429Z,388.12
2023-04-10T09:47:29.396Z,393.75
2023-04-10T09:48:29.399Z,382.50
2023-04-10T09:49:29.347Z,393.75
2023-04-10T09:50:29.368Z,399.38
2023-04-10T09:51:29.326Z,399.38
2023-04-10T09:52:29.338Z,405.00
2023-04-10T09:53:29.319Z,405.00
2023-04-10T09:54:29.334Z,399.38
2023-04-10T09:55:29.286Z,405.00
2023-04-10T09:56:29.325Z,405.00
2023-04-10T09:57:29.281Z,405.00
2023-04-10T09:58:29.272Z,405.00
2023-04-10T09:59:29.249Z,405.00
2023-04-10T10:00:29.257Z,405.00
2023-04-10T10:01:29.248Z,399.38
2023-04-10T10:02:29.373Z,399.38
2023-04-10T10:03:29.382Z,399.38
2023-04-10T10:04:29.229Z,405.00
2023-04-10T10:05:29.181Z,405.00
2023-04-10T10:06:35.710Z,399.38
2023-04-10T10:07:29.180Z,399.38
2023-04-10T10:08:29.196Z,399.38
2023-04-10T10:09:29.444Z,371.25
2023-04-10T10:10:29.169Z,399.38
2023-04-10T10:11:29.154Z,405.00
2023-04-10T10:12:29.157Z,405.00
2023-04-10T10:13:29.096Z,410.62
2023-04-10T10:14:29.151Z,410.62
2023-04-10T10:15:29.078Z,405.00
2023-04-10T10:16:29.133Z,405.00
2023-04-10T10:17:29.137Z,405.00
2023-04-10T10:18:29.080Z,405.00
2023-04-10T10:19:29.039Z,410.62
2023-04-10T10:20:29.053Z,416.25
2023-04-10T10:21:29.020Z,410.62
2023-04-10T10:22:29.042Z,416.25
2023-04-10T10:23:29.001Z,416.25
2023-04-10T10:24:29.025Z,416.25
2023-04-10T10:25:28.973Z,416.25
2023-04-10T10:26:29.003Z,416.25
2023-04-10T10:27:28.958Z,399.38
2023-04-10T10:28:29.003Z,382.50
2023-04-10T10:29:28.943Z,399.38
2023-04-10T10:30:30.389Z,326.25
2023-04-10T10:31:28.951Z,376.88
2023-04-10T10:32:28.956Z,399.38
2023-04-10T10:33:28.894Z,416.25
2023-04-10T10:34:28.958Z,416.25
2023-04-10T10:35:30.055Z,427.50
2023-04-10T10:36:28.919Z,348.75
2023-04-10T10:37:28.857Z,410.62
2023-04-10T10:38:28.874Z,410.62
2023-04-10T10:39:28.841Z,421.88
2023-04-10T10:40:28.869Z,421.88
2023-04-10T10:41:28.829Z,421.88
2023-04-10T10:42:28.828Z,405.00
2023-04-10T10:43:28.799Z,410.62
2023-04-10T10:44:28.816Z,416.25
2023-04-10T10:45:28.811Z,427.50
2023-04-10T10:46:28.808Z,421.88
2023-04-10T10:47:28.774Z,410.62
2023-04-10T10:48:28.758Z,410.62
2023-04-10T10:49:28.734Z,421.88
2023-04-10T10:50:28.747Z,416.25
2023-04-10T10:51:28.718Z,421.88
2023-04-10T10:52:28.732Z,410.62
2023-04-10T10:53:28.706Z,427.50
2023-04-10T10:54:28.694Z,410.62
2023-04-10T10:55:28.680Z,421.88
2023-04-10T10:56:28.688Z,427.50
2023-04-10T10:57:28.651Z,421.88
2023-04-10T10:58:28.652Z,421.88
2023-04-10T10:59:28.622Z,393.75
2023-04-10T11:00:28.657Z,427.50
2023-04-10T11:01:28.725Z,421.88
2023-04-10T11:02:28.737Z,399.38
2023-04-10T11:03:28.842Z,410.62
2023-04-10T11:04:28.613Z,421.88
2023-04-10T11:05:28.595Z,416.25
2023-04-10T11:06:28.615Z,421.88
2023-04-10T11:07:28.546Z,421.88
2023-04-10T11:08:28.574Z,427.50
2023-04-10T11:09:28.552Z,427.50
2023-04-10T11:10:28.552Z,427.50
2023-04-10T11:11:28.547Z,416.25
2023-04-10T11:12:28.568Z,421.88
2023-04-10T11:13:28.499Z,416.25
2023-04-10T11:14:28.491Z,416.25
2023-04-10T11:15:28.470Z,405.00
2023-04-10T11:16:28.506Z,410.62
2023-04-10T11:17:28.477Z,421.88
2023-04-10T11:18:28.471Z,421.88
2023-04-10T11:19:28.633Z,410.62
2023-04-10T11:20:28.443Z,421.88
2023-04-10T11:21:28.404Z,427.50
2023-04-10T11:22:28.409Z,382.50
2023-04-10T11:23:28.382Z,433.12
2023-04-10T11:24:28.409Z,433.12
2023-04-10T11:25:28.366Z,433.12
2023-04-10T11:26:28.379Z,427.50
2023-04-10T11:27:28.345Z,427.50
2023-04-10T11:28:28.357Z,427.50
2023-04-10T11:29:28.326Z,427.50
2023-04-10T11:30:28.330Z,427.50
2023-04-10T11:31:28.323Z,427.50
2023-04-10T11:32:28.353Z,433.12
2023-04-10T11:33:28.279Z,433.12
2023-04-10T11:34:28.305Z,433.12
2023-04-10T11:35:28.291Z,427.50
2023-04-10T11:36:28.272Z,433.12
2023-04-10T11:37:28.230Z,427.50
2023-04-10T11:38:28.255Z,433.12
2023-04-10T11:39:28.218Z,427.50
2023-04-10T11:40:28.240Z,438.75
2023-04-10T11:41:28.198Z,427.50
2023-04-10T11:42:28.236Z,433.12
2023-04-10T11:43:28.186Z,438.75
2023-04-10T11:44:28.184Z,433.12
2023-04-10T11:45:28.170Z,427.50
2023-04-10T11:46:28.222Z,421.88
2023-04-10T11:47:28.142Z,433.12
2023-04-10T11:48:28.147Z,433.12
2023-04-10T11:49:28.114Z,421.88
2023-04-10T11:50:28.125Z,416.25
2023-04-10T11:51:28.102Z,416.25
2023-04-10T11:52:28.104Z,427.50
2023-04-10T11:53:28.068Z,433.12
2023-04-10T11:54:28.083Z,444.38
2023-04-10T11:55:28.044Z,438.75
2023-04-10T11:56:28.063Z,376.88
2023-04-10T11:57:28.032Z,399.38
2023-04-10T11:58:28.043Z,433.12
2023-04-10T11:59:27.997Z,410.62
2023-04-10T12:00:28.026Z,399.38
2023-04-10T12:01:27.978Z,388.12
2023-04-10T12:02:28.103Z,393.75
2023-04-10T12:03:28.035Z,382.50
2023-04-10T12:04:28.289Z,399.38
2023-04-10T12:05:27.952Z,393.75
2023-04-10T12:06:27.940Z,393.75
2023-04-10T12:07:27.928Z,427.50
2023-04-10T12:08:27.934Z,427.50
2023-04-10T12:09:27.893Z,410.62
2023-04-10T12:10:27.901Z,410.62
2023-04-10T12:11:27.880Z,399.38
2023-04-10T12:12:27.905Z,405.00
2023-04-10T12:13:27.867Z,393.75
2023-04-10T12:14:27.856Z,405.00
2023-04-10T12:15:27.881Z,416.25
2023-04-10T12:16:27.867Z,410.62
2023-04-10T12:17:27.833Z,421.88
2023-04-10T12:18:27.830Z,416.25
2023-04-10T12:19:27.791Z,421.88
2023-04-10T12:20:27.803Z,416.25
2023-04-10T12:21:27.774Z,427.50
2023-04-10T12:22:27.777Z,399.38
2023-04-10T12:23:27.769Z,371.25
2023-04-10T12:24:27.789Z,399.38
2023-04-10T12:25:27.732Z,354.38
2023-04-10T12:26:27.753Z,331.88
2023-04-10T12:27:27.786Z,326.25
2023-04-10T12:28:27.723Z,354.38
2023-04-10T12:29:27.711Z,354.38
2023-04-10T12:30:27.708Z,360.00
2023-04-10T12:31:27.744Z,360.00
2023-04-10T12:32:27.893Z,343.12
2023-04-10T12:33:27.664Z,348.75
2023-04-10T12:34:27.672Z,348.75
2023-04-10T12:35:27.674Z,337.50
2023-04-10T12:36:27.637Z,337.50
2023-04-10T12:37:27.615Z,326.25
2023-04-10T12:38:27.622Z,348.75
2023-04-10T12:39:27.594Z,360.00
2023-04-10T12:40:27.625Z,348.75
2023-04-10T12:41:27.578Z,309.38
2023-04-10T12:42:27.556Z,337.50
2023-04-10T12:43:27.578Z,320.62
2023-04-10T12:44:27.560Z,360.00
2023-04-10T12:45:27.598Z,376.88
2023-04-10T12:46:27.754Z,393.75
2023-04-10T12:47:27.557Z,382.50
2023-04-10T12:48:27.495Z,382.50
2023-04-10T12:49:27.515Z,360.00
2023-04-10T12:50:27.475Z,360.00
2023-04-10T12:51:27.508Z,360.00
2023-04-10T12:52:27.463Z,382.50